createdAt,value
2023-02-23T00:01:54.715Z,118.43
2023-02-23T00:04:23.828Z,118.23
2023-02-23T00:06:54.753Z,115.50
2023-02-23T00:09:24.782Z,119.70
2023-02-23T00:11:55.835Z,112.70
2023-02-23T00:14:29.001Z,122.07
2023-02-23T00:16:59.997Z,114.93
2023-02-23T00:19:28.071Z,123.63
2023-02-23T00:21:58.845Z,123.13
2023-02-23T00:24:27.118Z,122.47
2023-02-23T00:26:54.464Z,111.83
2023-02-23T00:29:23.861Z,113.90
2023-02-23T00:31:52.326Z,116.93
2023-02-23T00:34:21.555Z,129.10
2023-02-23T00:36:55.669Z,116.37
2023-02-23T00:39:29.237Z,107.80
2023-02-23T00:41:57.286Z,120.60
2023-02-23T00:44:25.012Z,111.87
2023-02-23T00:46:53.038Z,118.43
2023-02-23T00:49:22.148Z,119.10
2023-02-23T00:51:49.108Z,109.40
2023-02-23T00:54:18.098Z,102.40
2023-02-23T00:56:45.606Z,111.30
2023-02-23T00:59:13.985Z,103.50
2023-02-23T01:01:42.057Z,108.47
2023-02-23T01:04:09.822Z,112.83
2023-02-23T01:06:38.105Z,115.03
2023-02-23T01:09:10.965Z,113.47
2023-02-23T01:11:41.628Z,113.73
2023-02-23T01:14:10.209Z,109.57
2023-02-23T01:16:39.229Z,118.33
2023-02-23T01:19:07.037Z,113.43
2023-02-23T01:21:38.121Z,117.70
2023-02-23T01:24:05.873Z,105.27
2023-02-23T01:26:36.514Z,109.73
2023-02-23T01:29:09.447Z,116.67
2023-02-23T01:31:38.501Z,112.47
2023-02-23T01:34:06.790Z,114.10
2023-02-23T01:36:39.134Z,104.03
2023-02-23T01:39:08.178Z,109.73
2023-02-23T01:41:37.194Z,115.33
2023-02-23T01:44:28.486Z,108.27
2023-02-23T01:46:55.474Z,107.40
2023-02-23T01:49:27.424Z,101.93
2023-02-23T01:51:57.362Z,108.33
2023-02-23T01:54:32.238Z,101.90
2023-02-23T01:57:03.416Z,102.00
2023-02-23T01:59:38.136Z,107.90
2023-02-23T02:02:05.425Z,103.70
2023-02-23T02:04:45.979Z,97.23
2023-02-23T02:07:24.782Z,95.97
2023-02-23T02:10:13.158Z,92.87
2023-02-23T02:12:42.781Z,98.30
2023-02-23T02:15:17.380Z,103.73
2023-02-23T02:17:47.552Z,92.57
2023-02-23T02:20:14.937Z,94.43
2023-02-23T02:23:14.641Z,101.57
2023-02-23T02:26:04.490Z,93.73
2023-02-23T02:28:46.113Z,89.63
2023-02-23T02:31:47.235Z,92.73
2023-02-23T02:34:18.272Z,96.63
2023-02-23T02:37:09.173Z,95.37
2023-02-23T02:40:14.993Z,95.93
2023-02-23T02:42:55.420Z,93.03
2023-02-23T02:45:45.807Z,85.27
2023-02-23T02:48:20.986Z,97.43
2023-02-23T02:50:58.659Z,93.60
2023-02-23T02:53:41.065Z,94.00
2023-02-23T02:56:08.881Z,94.80
2023-02-23T02:58:38.980Z,100.27
2023-02-23T03:01:33.389Z,99.43
2023-02-23T03:04:37.994Z,95.67
2023-02-23T03:07:31.652Z,97.63
2023-02-23T03:10:54.505Z,97.40
2023-02-23T03:14:04.386Z,110.90
2023-02-23T03:17:19.238Z,108.30
2023-02-23T03:20:22.542Z,96.97
2023-02-23T03:23:10.997Z,106.63
2023-02-23T03:26:27.779Z,98.33
2023-02-23T03:29:30.070Z,100.47
2023-02-23T03:32:38.712Z,104.00
2023-02-23T03:35:36.859Z,101.23
2023-02-23T03:38:37.089Z,97.40
2023-02-23T03:41:26.043Z,101.53
2023-02-23T03:44:20.929Z,106.97
2023-02-23T03:47:07.611Z,102.67
2023-02-23T03:49:57.716Z,103.93
2023-02-23T03:53:01.132Z,100.50
2023-02-23T03:55:52.846Z,105.60
2023-02-23T03:58:46.551Z,110.80
2023-02-23T04:01:50.339Z,105.10
2023-02-23T04:04:35.760Z,114.17
2023-02-23T04:07:22.302Z,114.67
2023-02-23T04:10:07.893Z,113.93
2023-02-23T04:13:00.100Z,111.57
2023-02-23T04:15:32.875Z,107.43
2023-02-23T04:18:00.105Z,109.00
2023-02-23T04:20:27.449Z,110.17
2023-02-23T04:22:54.270Z,116.73
2023-02-23T04:25:22.908Z,118.07
2023-02-23T04:27:50.656Z,114.13
2023-02-23T04:30:18.056Z,115.90
2023-02-23T04:32:45.977Z,117.97
2023-02-23T04:35:13.587Z,127.93
2023-02-23T04:37:40.324Z,111.80
2023-02-23T04:40:07.953Z,125.83
2023-02-23T04:42:34.595Z,116.50
2023-02-23T04:45:01.324Z,116.47
2023-02-23T04:47:28.063Z,122.60
2023-02-23T04:49:54.745Z,121.47
2023-02-23T04:52:21.390Z,122.93
2023-02-23T04:54:48.150Z,118.43
2023-02-23T04:57:14.979Z,119.33
2023-02-23T04:59:41.657Z,131.63
2023-02-23T05:02:09.459Z,126.00
2023-02-23T05:04:36.134Z,133.07
2023-02-23T05:07:03.665Z,116.20
2023-02-23T05:09:31.438Z,121.57
2023-02-23T05:11:59.558Z,128.50
2023-02-23T05:14:26.848Z,127.47
2023-02-23T05:16:53.865Z,130.37
2023-02-23T05:19:20.718Z,141.67
2023-02-23T05:21:47.436Z,125.10
2023-02-23T05:24:14.096Z,125.57
2023-02-23T05:26:40.837Z,142.47
2023-02-23T05:29:07.677Z,140.07
2023-02-23T05:31:34.641Z,130.50
2023-02-23T05:34:02.548Z,141.30
2023-02-23T05:36:29.279Z,146.90
2023-02-23T05:38:56.185Z,139.73
2023-02-23T05:41:23.731Z,140.73
2023-02-23T05:43:52.327Z,139.47
2023-02-23T05:46:22.388Z,144.70
2023-02-23T05:48:49.165Z,138.67
2023-02-23T05:51:17.787Z,152.77
2023-02-23T05:53:46.428Z,147.17
2023-02-23T05:56:20.321Z,148.53
2023-02-23T05:58:52.733Z,142.90
2023-02-23T06:01:20.915Z,146.80
2023-02-23T06:03:48.698Z,128.27
2023-02-23T06:06:17.581Z,156.00
2023-02-23T06:08:44.541Z,133.37
2023-02-23T06:11:11.326Z,137.80
2023-02-23T06:13:38.169Z,147.47
2023-02-23T06:16:05.495Z,143.57
2023-02-23T06:18:32.268Z,155.73
2023-02-23T06:21:01.090Z,141.47
2023-02-23T06:23:28.612Z,151.33
2023-02-23T06:25:55.450Z,137.40
2023-02-23T06:28:22.179Z,152.17
2023-02-23T06:30:52.211Z,150.03
2023-02-23T06:33:18.929Z,160.23
2023-02-23T06:35:46.116Z,155.10
2023-02-23T06:38:12.797Z,161.50
2023-02-23T06:40:40.296Z,149.47
2023-02-23T06:43:07.018Z,156.60
2023-02-23T06:45:33.675Z,152.87
2023-02-23T06:48:00.930Z,158.83
2023-02-23T06:50:28.427Z,148.73
2023-02-23T06:52:57.527Z,146.33
2023-02-23T06:55:24.523Z,147.83
2023-02-23T06:57:52.335Z,144.80
2023-02-23T07:00:19.502Z,138.57
2023-02-23T07:02:46.471Z,137.30
2023-02-23T07:05:13.145Z,139.20
2023-02-23T07:07:40.282Z,137.70
2023-02-23T07:10:07.916Z,139.33
2023-02-23T07:12:34.669Z,143.27
2023-02-23T07:15:01.299Z,131.20
2023-02-23T07:17:28.014Z,122.13
2023-02-23T07:19:54.743Z,139.60
2023-02-23T07:22:22.446Z,134.77
2023-02-23T07:24:49.180Z,135.83
2023-02-23T07:27:15.833Z,133.63
2023-02-23T07:29:42.480Z,134.00
2023-02-23T07:32:09.295Z,138.80
2023-02-23T07:34:37.144Z,134.27
2023-02-23T07:37:03.897Z,118.10
2023-02-23T07:39:31.080Z,116.83
2023-02-23T07:41:58.338Z,126.53
2023-02-23T07:44:24.997Z,128.07
2023-02-23T07:46:52.856Z,128.10
2023-02-23T07:49:19.511Z,136.50
2023-02-23T07:51:46.933Z,128.83
2023-02-23T07:54:13.700Z,119.87
2023-02-23T07:56:40.406Z,134.30
2023-02-23T07:59:07.085Z,133.10
2023-02-23T08:01:33.964Z,129.13
2023-02-23T08:04:00.900Z,122.47
2023-02-23T08:06:27.734Z,126.40
2023-02-23T08:08:54.482Z,122.40
2023-02-23T08:11:21.334Z,120.87
2023-02-23T08:13:48.112Z,128.73
2023-02-23T08:16:16.498Z,122.13
2023-02-23T08:18:43.259Z,120.87
2023-02-23T08:21:09.972Z,117.07
2023-02-23T08:23:36.687Z,119.37
2023-02-23T08:26:04.568Z,117.10
2023-02-23T08:28:31.487Z,119.40
2023-02-23T08:30:59.392Z,122.87
2023-02-23T08:33:26.344Z,125.93
2023-02-23T08:35:53.666Z,118.07
2023-02-23T08:38:20.641Z,115.00
2023-02-23T08:40:47.310Z,118.63
2023-02-23T08:43:14.012Z,130.20
2023-02-23T08:45:40.679Z,115.83
2023-02-23T08:48:08.768Z,119.13
2023-02-23T08:50:35.547Z,115.93
2023-02-23T08:53:02.430Z,123.70
2023-02-23T08:55:29.110Z,114.97
2023-02-23T08:57:55.788Z,112.00
2023-02-23T09:00:22.968Z,120.73
2023-02-23T09:02:50.553Z,116.10
2023-02-23T09:05:18.117Z,122.20
2023-02-23T09:07:46.218Z,117.33
2023-02-23T09:10:15.444Z,115.93
2023-02-23T09:12:42.141Z,114.97
2023-02-23T09:15:09.568Z,109.63
2023-02-23T09:17:36.525Z,118.57
2023-02-23T09:20:04.324Z,111.50
2023-02-23T09:22:32.260Z,105.80
2023-02-23T09:24:58.895Z,108.67
2023-02-23T09:27:25.682Z,105.43
2023-02-23T09:29:52.335Z,102.37
2023-02-23T09:32:19.186Z,102.27
2023-02-23T09:34:48.667Z,105.23
2023-02-23T09:37:15.941Z,102.47
2023-02-23T09:39:43.590Z,96.27
2023-02-23T09:42:31.166Z,92.70
2023-02-23T09:45:15.180Z,98.03
2023-02-23T09:48:09.253Z,92.47
2023-02-23T09:50:38.596Z,89.00
2023-02-23T09:53:34.092Z,95.80
2023-02-23T09:56:04.472Z,98.00
2023-02-23T09:58:33.839Z,90.53
2023-02-23T10:01:24.507Z,80.17
2023-02-23T10:03:58.410Z,86.80
2023-02-23T10:06:25.289Z,85.30
2023-02-23T10:09:29.699Z,76.23
2023-02-23T10:12:17.241Z,81.37
2023-02-23T10:15:01.752Z,85.13
2023-02-23T10:17:39.032Z,86.23
2023-02-23T10:20:26.883Z,87.43
2023-02-23T10:22:55.863Z,78.93
2023-02-23T10:25:28.644Z,80.83
2023-02-23T10:27:58.388Z,80.23
2023-02-23T10:30:29.048Z,82.73
2023-02-23T10:33:13.500Z,75.13
2023-02-23T10:35:40.435Z,74.87
2023-02-23T10:38:16.094Z,87.07
2023-02-23T10:40:44.671Z,76.23
2023-02-23T10:43:13.267Z,71.03
2023-02-23T10:45:46.027Z,73.67
2023-02-23T10:48:24.372Z,69.17
2023-02-23T10:50:55.090Z,75.77
2023-02-23T10:53:26.700Z,70.50
2023-02-23T10:56:15.541Z,70.13
2023-02-23T10:58:52.317Z,73.63
2023-02-23T11:01:41.783Z,69.37
2023-02-23T11:04:29.914Z,79.97
2023-02-23T11:07:14.110Z,63.87
2023-02-23T11:09:47.154Z,68.00
2023-02-23T11:12:35.389Z,76.33
2023-02-23T11:15:48.119Z,71.43
2023-02-23T11:18:23.194Z,73.63
2023-02-23T11:20:50.312Z,73.63
2023-02-23T11:23:28.985Z,70.73
2023-02-23T11:26:02.367Z,77.47
2023-02-23T11:28:36.737Z,72.23
2023-02-23T11:31:16.852Z,73.73
2023-02-23T11:33:44.410Z,74.67
2023-02-23T11:36:40.495Z,70.10
2023-02-23T11:39:27.470Z,73.20
2023-02-23T11:42:17.482Z,65.60
2023-02-23T11:44:49.636Z,68.53
2023-02-23T11:47:22.633Z,72.87
2023-02-23T11:49:50.674Z,64.53
2023-02-23T11:52:21.621Z,64.30
2023-02-23T11:55:05.258Z,65.83
2023-02-23T11:57:34.755Z,67.60
2023-02-23T12:00:23.798Z,63.93
2023-02-23T12:02:58.653Z,61.97
2023-02-23T12:05:30.825Z,67.73
2023-02-23T12:08:10.597Z,71.77
2023-02-23T12:10:43.690Z,67.47
2023-02-23T12:13:13.425Z,72.17
2023-02-23T12:16:04.500Z,64.23
2023-02-23T12:18:53.158Z,71.10
2023-02-23T12:21:32.961Z,65.90
2023-02-23T12:24:14.746Z,67.23
2023-02-23T12:26:46.555Z,69.57
2023-02-23T12:29:24.434Z,69.53
2023-02-23T12:32:05.758Z,62.47
2023-02-23T12:34:53.184Z,64.53
2023-02-23T12:37:41.676Z,70.10
2023-02-23T12:40:19.116Z,64.67
2023-02-23T12:42:51.170Z,73.33
2023-02-23T12:45:24.652Z,61.50
2023-02-23T12:48:15.306Z,61.27
2023-02-23T12:50:51.708Z,62.40
2023-02-23T12:53:37.215Z,60.70
2023-02-23T12:56:05.047Z,62.97
2023-02-23T12:58:43.622Z,56.07
2023-02-23T13:01:27.982Z,58.87
2023-02-23T13:04:39.537Z,52.37
2023-02-23T13:07:15.797Z,57.00
2023-02-23T13:10:00.566Z,55.27
2023-02-23T13:12:41.790Z,52.57
2023-02-23T13:15:19.506Z,50.93
2023-02-23T13:17:46.144Z,47.63
2023-02-23T13:20:37.341Z,51.33
2023-02-23T13:23:14.198Z,48.53
2023-02-23T13:25:50.509Z,49.87
2023-02-23T13:28:45.871Z,46.23
2023-02-23T13:31:38.549Z,47.57
2023-02-23T13:34:10.155Z,48.83
2023-02-23T13:36:38.908Z,46.40
2023-02-23T13:39:28.960Z,47.27
2023-02-23T13:42:20.877Z,44.47
2023-02-23T13:45:35.380Z,47.07
2023-02-23T13:48:27.933Z,47.97
2023-02-23T13:51:09.454Z,46.83
2023-02-23T13:53:39.944Z,53.07
2023-02-23T13:56:31.412Z,46.70
2023-02-23T13:59:05.124Z,43.27
2023-02-23T14:01:43.651Z,40.53
2023-02-23T14:04:21.246Z,43.27
2023-02-23T14:07:04.041Z,41.83
2023-02-23T14:09:36.689Z,40.13
2023-02-23T14:12:19.241Z,39.90
2023-02-23T14:14:46.959Z,42.13
2023-02-23T14:17:16.344Z,36.97
2023-02-23T14:20:13.344Z,36.60
2023-02-23T14:23:28.997Z,43.57
2023-02-23T14:26:18.534Z,37.80
2023-02-23T14:28:51.039Z,38.80
2023-02-23T14:31:21.035Z,32.73
2023-02-23T14:33:49.726Z,35.27
2023-02-23T14:36:25.430Z,29.07
2023-02-23T14:39:37.452Z,36.53
2023-02-23T14:42:07.170Z,33.00
2023-02-23T14:44:43.368Z,35.17
2023-02-23T14:47:15.344Z,32.97
2023-02-23T14:50:02.060Z,39.93
2023-02-23T14:52:33.305Z,34.63
2023-02-23T14:55:12.010Z,36.53
2023-02-23T14:57:43.112Z,33.03
2023-02-23T15:00:16.180Z,36.80
2023-02-23T15:03:00.970Z,42.17
2023-02-23T15:05:31.354Z,36.50
2023-02-23T15:08:00.558Z,40.70
2023-02-23T15:10:38.774Z,38.87
2023-02-23T15:13:28.805Z,48.03
2023-02-23T15:15:57.492Z,41.70
2023-02-23T15:18:34.583Z,43.37
2023-02-23T15:21:19.766Z,50.73
2023-02-23T15:23:51.195Z,47.07
2023-02-23T15:26:24.815Z,42.27
2023-02-23T15:28:51.661Z,44.27
2023-02-23T15:31:19.855Z,40.37
2023-02-23T15:33:50.692Z,53.00
2023-02-23T15:36:30.287Z,49.67
2023-02-23T15:39:00.137Z,56.50
2023-02-23T15:41:32.400Z,54.23
2023-02-23T15:44:32.228Z,62.00
2023-02-23T15:47:10.561Z,60.17
2023-02-23T15:49:42.116Z,67.33
2023-02-23T15:52:16.486Z,79.53
2023-02-23T15:54:50.837Z,74.67
2023-02-23T15:57:41.538Z,73.37
2023-02-23T16:00:17.150Z,83.90
2023-02-23T16:02:45.414Z,71.70
2023-02-23T16:05:23.357Z,78.53
2023-02-23T16:08:06.218Z,49.13
2023-02-23T16:10:44.775Z,34.97
2023-02-23T16:13:13.972Z,28.27
2023-02-23T16:15:42.043Z,22.70
2023-02-23T16:18:23.065Z,20.37
2023-02-23T16:20:56.105Z,16.43
2023-02-23T16:23:36.985Z,17.73
2023-02-23T16:26:12.238Z,18.90
2023-02-23T16:28:43.632Z,15.23
2023-02-23T16:31:28.087Z,25.50
2023-02-23T16:33:57.418Z,27.63
2023-02-23T16:36:41.088Z,27.33
2023-02-23T16:39:11.934Z,26.70
2023-02-23T16:41:39.153Z,27.97
2023-02-23T16:44:07.363Z,24.67
2023-02-23T16:46:53.991Z,22.93
2023-02-23T16:49:23.414Z,28.33
2023-02-23T16:51:51.459Z,27.00
2023-02-23T16:54:18.217Z,25.60
2023-02-23T16:56:47.178Z,24.67
2023-02-23T16:59:17.225Z,23.80
2023-02-23T17:01:50.056Z,21.23
2023-02-23T17:04:19.088Z,21.00
2023-02-23T17:06:48.433Z,21.40
2023-02-23T17:09:15.087Z,23.17
2023-02-23T17:11:43.234Z,25.37
2023-02-23T17:14:19.170Z,28.20
2023-02-23T17:16:45.880Z,25.03
2023-02-23T17:19:16.104Z,23.93
2023-02-23T17:21:42.831Z,28.33
2023-02-23T17:24:09.730Z,32.83
2023-02-23T17:26:36.510Z,23.03
2023-02-23T17:29:03.205Z,26.07
2023-02-23T17:31:31.959Z,27.20
2023-02-23T17:33:59.060Z,25.60
2023-02-23T17:36:27.476Z,21.73
2023-02-23T17:38:58.697Z,18.70
2023-02-23T17:41:26.230Z,23.50
2023-02-23T17:43:52.918Z,27.57
2023-02-23T17:46:19.699Z,23.30
2023-02-23T17:48:49.253Z,24.03
2023-02-23T17:51:16.976Z,19.17
2023-02-23T17:53:43.909Z,21.13
2023-02-23T17:56:10.915Z,29.80
2023-02-23T17:58:37.985Z,30.13
2023-02-23T18:01:07.042Z,20.00
2023-02-23T18:03:35.969Z,39.87
2023-02-23T18:06:04.462Z,38.50
2023-02-23T18:08:31.543Z,31.80
2023-02-23T18:10:58.537Z,31.90
2023-02-23T18:13:26.535Z,25.57
2023-02-23T18:15:58.432Z,25.87
2023-02-23T18:18:25.180Z,32.83
2023-02-23T18:20:54.247Z,30.53
2023-02-23T18:23:22.167Z,23.73
2023-02-23T18:25:49.710Z,25.70
2023-02-23T18:28:17.530Z,25.07
2023-02-23T18:30:44.873Z,26.47
2023-02-23T18:33:13.123Z,30.10
2023-02-23T18:35:42.840Z,25.50
2023-02-23T18:38:11.659Z,26.33
2023-02-23T18:40:38.932Z,29.33
2023-02-23T18:43:06.207Z,28.10
2023-02-23T18:45:34.041Z,23.83
2023-02-23T18:48:00.716Z,27.53
2023-02-23T18:50:27.531Z,34.70
2023-02-23T18:52:56.216Z,27.90
2023-02-23T18:55:23.789Z,32.37
2023-02-23T18:57:52.610Z,30.20
2023-02-23T19:00:20.063Z,30.23
2023-02-23T19:02:47.468Z,33.73
2023-02-23T19:05:16.471Z,27.83
2023-02-23T19:07:43.590Z,30.53
2023-02-23T19:10:12.411Z,24.27
2023-02-23T19:12:40.257Z,35.33
2023-02-23T19:15:08.449Z,27.47
2023-02-23T19:17:36.199Z,20.60
2023-02-23T19:20:07.866Z,35.37
2023-02-23T19:22:35.021Z,31.83
2023-02-23T19:25:02.082Z,30.83
2023-02-23T19:27:28.779Z,24.83
2023-02-23T19:29:55.463Z,29.53
2023-02-23T19:32:22.230Z,22.30
2023-02-23T19:34:49.124Z,29.50
2023-02-23T19:37:15.816Z,23.73
2023-02-23T19:39:42.485Z,29.23
2023-02-23T19:42:09.184Z,29.40
2023-02-23T19:44:36.000Z,25.27
2023-02-23T19:47:02.645Z,26.47
2023-02-23T19:49:29.449Z,35.47
2023-02-23T19:51:57.720Z,34.50
2023-02-23T19:54:26.079Z,26.20
2023-02-23T19:56:53.097Z,24.70
2023-02-23T19:59:20.049Z,28.67
2023-02-23T20:01:46.733Z,29.33
2023-02-23T20:04:13.454Z,29.10
2023-02-23T20:06:44.867Z,28.07
2023-02-23T20:09:11.844Z,31.53
2023-02-23T20:11:38.770Z,35.20
2023-02-23T20:14:07.862Z,24.83
2023-02-23T20:16:35.053Z,28.33
2023-02-23T20:19:02.002Z,27.90
2023-02-23T20:21:30.565Z,25.80
2023-02-23T20:23:58.107Z,28.23
2023-02-23T20:26:29.466Z,36.50
2023-02-23T20:28:57.514Z,22.40
2023-02-23T20:31:28.215Z,34.87
2023-02-23T20:33:56.804Z,17.80
2023-02-23T20:36:24.426Z,21.33
2023-02-23T20:38:51.958Z,31.67
2023-02-23T20:41:19.743Z,24.90
2023-02-23T20:43:46.738Z,34.83
2023-02-23T20:46:15.829Z,36.53
2023-02-23T20:48:43.556Z,17.73
2023-02-23T20:51:13.656Z,29.23
2023-02-23T20:53:41.977Z,22.87
2023-02-23T20:56:09.595Z,21.67
2023-02-23T20:58:36.804Z,28.63
2023-02-23T21:01:06.931Z,19.03
2023-02-23T21:03:34.895Z,22.97
2023-02-23T21:06:01.783Z,17.77
2023-02-23T21:08:31.579Z,32.67
2023-02-23T21:11:05.249Z,15.70
2023-02-23T21:13:32.316Z,24.93
2023-02-23T21:16:01.133Z,20.07
2023-02-23T21:18:28.928Z,24.67
2023-02-23T21:20:56.834Z,25.17
2023-02-23T21:23:27.937Z,19.23
2023-02-23T21:25:58.136Z,14.63
2023-02-23T21:28:24.851Z,23.27
2023-02-23T21:30:51.540Z,28.17
2023-02-23T21:33:18.249Z,23.23
2023-02-23T21:35:44.889Z,20.73
2023-02-23T21:38:11.684Z,20.03
2023-02-23T21:40:42.191Z,22.17
2023-02-23T21:43:09.175Z,15.03
2023-02-23T21:45:39.002Z,24.90
2023-02-23T21:48:05.692Z,18.73
2023-02-23T21:50:32.446Z,22.03
2023-02-23T21:52:59.126Z,20.77
2023-02-23T21:55:25.804Z,25.33
2023-02-23T21:57:52.538Z,27.23
2023-02-23T22:00:20.821Z,24.57
2023-02-23T22:02:48.147Z,27.80
2023-02-23T22:05:16.338Z,20.30
2023-02-23T22:07:48.940Z,23.40
2023-02-23T22:10:18.527Z,18.40
2023-02-23T22:12:45.451Z,19.70
2023-02-23T22:15:12.607Z,22.50
2023-02-23T22:17:39.367Z,25.43
2023-02-23T22:20:09.537Z,24.53
2023-02-23T22:22:36.723Z,23.60
2023-02-23T22:25:05.160Z,24.07
2023-02-23T22:27:32.390Z,15.80
2023-02-23T22:29:59.656Z,17.87
2023-02-23T22:32:34.086Z,15.83
2023-02-23T22:35:01.389Z,22.13
2023-02-23T22:37:29.885Z,19.17
2023-02-23T22:39:59.712Z,19.23
2023-02-23T22:42:30.305Z,25.23
2023-02-23T22:44:57.310Z,29.10
2023-02-23T22:47:24.766Z,30.77
2023-02-23T22:49:51.508Z,32.03
2023-02-23T22:52:18.427Z,32.67
2023-02-23T22:54:46.342Z,23.30
2023-02-23T22:57:13.516Z,21.07
2023-02-23T22:59:40.190Z,25.70
2023-02-23T23:02:25.140Z,23.43
2023-02-23T23:04:54.175Z,24.73
2023-02-23T23:07:24.916Z,26.03
2023-02-23T23:09:52.139Z,25.97
2023-02-23T23:12:24.374Z,31.90
2023-02-23T23:14:51.401Z,27.37
2023-02-23T23:17:18.177Z,22.27
2023-02-23T23:19:45.120Z,29.33
2023-02-23T23:22:14.384Z,27.17
2023-02-23T23:24:45.998Z,22.60
2023-02-23T23:27:14.706Z,25.97
2023-02-23T23:29:45.611Z,28.23
2023-02-23T23:32:17.589Z,21.77
2023-02-23T23:34:49.284Z,17.93
2023-02-23T23:37:17.501Z,19.83
2023-02-23T23:39:44.843Z,21.23
2023-02-23T23:42:12.098Z,23.67
2023-02-23T23:44:41.676Z,25.67
2023-02-23T23:47:08.317Z,17.10
2023-02-23T23:49:40.058Z,18.40
2023-02-23T23:52:07.454Z,17.73
2023-02-23T23:54:38.950Z,17.30
2023-02-23T23:57:06.663Z,20.13
2023-02-23T23:59:35.184Z,18.30
